Bill Elmer — WDC6513 — position and weather

sailwx.info

Track history (hours):
 
Tides and Currents Weather Stations Pressure Air Temp Water Temp Dewpoint Dewpoint Depression Visibility Wind Speed Wind Dir Waves Ship Positions

Bill Elmer

Owner: AMERICAN COMMERCIAL BARGE LINE LLC, Jeffersonville, IN. More information available from US FCC via Universal Licensing System and Coast Guard Vessel Documentation Center.

Last reported at 2014-Oct-12 02:18 UTC. Time now 2014-Oct-25 01:37 UTC.
Position N 30°07' W 090°58'.
Warning: this ship's position is 12 days out of date.

; draft 2.9 m.

MMSI: 367057350.

Date/timePositionNaut miles runAvg speedWind from/ knotsBaromVisibWave heightAir tempDewpointWater temp
2014-Oct-12 02:18N 30°07' W 090°58'0 0.3
2014-Oct-12 01:09N 30°07' W 090°58'0 0.0
2014-Oct-12 00:15N 30°07' W 090°58'2 2.5
2014-Oct-11 23:21N 30°08' W 090°56'10 1.3
2014-Oct-11 15:24N 29°59' W 090°49'0 0.1
2014-Oct-11 12:08N 29°59' W 090°49'0 0.1
2014-Oct-11 11:17N 29°59' W 090°49'0 0.1
2014-Oct-11 09:31N 29°59' W 090°49'0 0.0
2014-Oct-11 08:16N 29°59' W 090°49'0 0.0
2014-Oct-11 07:26N 29°59' W 090°49'0 0.0
2014-Oct-11 06:33N 29°59' W 090°49'0 0.0
2014-Oct-11 05:13N 29°59' W 090°49'0 0.0
2014-Oct-11 04:23N 29°59' W 090°49'0 0.0
2014-Oct-11 03:14N 29°59' W 090°49'0 0.0
2014-Oct-11 02:19N 29°59' W 090°49'1 0.1
2014-Oct-10 13:18N 29°59' W 090°48'0 0.1
2014-Oct-10 12:33N 29°59' W 090°48'0 0.0
2014-Oct-10 11:33N 29°59' W 090°48'0 0.0
2014-Oct-10 10:33N 29°59' W 090°48'1 1.0
2014-Oct-10 09:33N 30°00' W 090°47'5 4.7
2014-Oct-10 08:30N 30°02' W 090°42'3 0.3
2014-Oct-09 22:33N 30°03' W 090°38'3 1.4
2014-Oct-09 20:33N 30°03' W 090°35'17 1.2
2014-Oct-09 06:33N 29°58' W 090°17'4 4.4
2014-Oct-09 05:33N 29°56' W 090°22'4 4.3
2014-Oct-09 04:34N 29°59' W 090°25'4 3.8
2014-Oct-09 03:33N 30°02' W 090°28'3 3.3
2014-Oct-09 02:33N 30°03' W 090°32'5 4.6
2014-Oct-09 01:33N 30°02' W 090°37'1 1.4
2014-Oct-09 00:32N 30°03' W 090°38'0 0.0
2014-Oct-08 23:33N 30°03' W 090°38'0 0.0
2014-Oct-08 22:33N 30°03' W 090°38'11 0.9
2014-Oct-08 09:32N 30°04' W 090°51'0 0.0
2014-Oct-08 08:33N 30°04' W 090°51'0 0.0
2014-Oct-08 07:20N 30°04' W 090°51'0 0.0
2014-Oct-08 06:27N 30°04' W 090°51'0 0.0
2014-Oct-08 05:24N 30°04' W 090°51'0 0.0
2014-Oct-08 04:31N 30°04' W 090°51'  
Track history (hours):
 
Tides and Currents Weather Stations Pressure Air Temp Water Temp Dewpoint Dewpoint Depression Visibility Wind Speed Wind Dir Waves Ship Positions

Bill Elmer

Owner: AMERICAN COMMERCIAL BARGE LINE LLC, Jeffersonville, IN. More information available from US FCC via Universal Licensing System and Coast Guard Vessel Documentation Center.

Last reported at 2014-Oct-12 02:18 UTC. Time now 2014-Oct-25 01:37 UTC.
Position N 30°07' W 090°58'.
Warning: this ship's position is 12 days out of date.

; draft 2.9 m.

MMSI: 367057350.

Date/timePositionNaut miles runAvg speedWind from/ knotsBaromVisibWave heightAir tempDewpointWater temp
2014-Oct-12 02:18N 30°07' W 090°58'0 0.3
2014-Oct-12 01:09N 30°07' W 090°58'0 0.0
2014-Oct-12 00:15N 30°07' W 090°58'2 2.5
2014-Oct-11 23:21N 30°08' W 090°56'10 1.3
2014-Oct-11 15:24N 29°59' W 090°49'0 0.1
2014-Oct-11 12:08N 29°59' W 090°49'0 0.1
2014-Oct-11 11:17N 29°59' W 090°49'0 0.1
2014-Oct-11 09:31N 29°59' W 090°49'0 0.0
2014-Oct-11 08:16N 29°59' W 090°49'0 0.0
2014-Oct-11 07:26N 29°59' W 090°49'0 0.0
2014-Oct-11 06:33N 29°59' W 090°49'0 0.0
2014-Oct-11 05:13N 29°59' W 090°49'0 0.0
2014-Oct-11 04:23N 29°59' W 090°49'0 0.0
2014-Oct-11 03:14N 29°59' W 090°49'0 0.0
2014-Oct-11 02:19N 29°59' W 090°49'1 0.1
2014-Oct-10 13:18N 29°59' W 090°48'0 0.1
2014-Oct-10 12:33N 29°59' W 090°48'0 0.0
2014-Oct-10 11:33N 29°59' W 090°48'0 0.0
2014-Oct-10 10:33N 29°59' W 090°48'1 1.0
2014-Oct-10 09:33N 30°00' W 090°47'5 4.7
2014-Oct-10 08:30N 30°02' W 090°42'3 0.3
2014-Oct-09 22:33N 30°03' W 090°38'3 1.4
2014-Oct-09 20:33N 30°03' W 090°35'17 1.2
2014-Oct-09 06:33N 29°58' W 090°17'4 4.4
2014-Oct-09 05:33N 29°56' W 090°22'4 4.3
2014-Oct-09 04:34N 29°59' W 090°25'4 3.8
2014-Oct-09 03:33N 30°02' W 090°28'3 3.3
2014-Oct-09 02:33N 30°03' W 090°32'5 4.6
2014-Oct-09 01:33N 30°02' W 090°37'1 1.4
2014-Oct-09 00:32N 30°03' W 090°38'0 0.0
2014-Oct-08 23:33N 30°03' W 090°38'0 0.0
2014-Oct-08 22:33N 30°03' W 090°38'11 0.9
2014-Oct-08 09:32N 30°04' W 090°51'0 0.0
2014-Oct-08 08:33N 30°04' W 090°51'0 0.0
2014-Oct-08 07:20N 30°04' W 090°51'0 0.0
2014-Oct-08 06:27N 30°04' W 090°51'0 0.0
2014-Oct-08 05:24N 30°04' W 090°51'0 0.0
2014-Oct-08 04:31N 30°04' W 090°51'  

Dump ship's entire track history